createdAt,value
2022-09-15T00:03:18.425Z,98.88
2022-09-15T00:08:40.656Z,99.48
2022-09-15T00:14:04.620Z,98.95
2022-09-15T00:19:26.414Z,99.92
2022-09-15T00:24:49.301Z,99.91
2022-09-15T00:30:11.321Z,99.80
2022-09-15T00:35:37.358Z,99.35
2022-09-15T00:41:00.670Z,97.76
2022-09-15T00:46:51.805Z,97.14
2022-09-15T00:52:36.065Z,98.17
2022-09-15T00:58:04.004Z,97.27
2022-09-15T01:03:27.244Z,96.72
2022-09-15T01:08:56.738Z,95.23
2022-09-15T01:14:18.468Z,96.28
2022-09-15T01:20:16.002Z,95.26
2022-09-15T01:26:05.563Z,96.55
2022-09-15T01:31:59.746Z,95.29
2022-09-15T01:37:28.894Z,95.09
2022-09-15T01:42:52.323Z,94.36
2022-09-15T01:48:15.300Z,95.55
2022-09-15T01:53:37.363Z,95.54
2022-09-15T01:58:59.475Z,95.57
2022-09-15T02:04:25.345Z,95.92
2022-09-15T02:10:21.924Z,93.66
2022-09-15T02:15:51.517Z,91.66
2022-09-15T02:21:45.638Z,91.93
2022-09-15T02:27:12.299Z,91.58
2022-09-15T02:32:37.587Z,89.90
2022-09-15T02:38:00.814Z,90.93
2022-09-15T02:43:23.342Z,90.95
2022-09-15T02:48:45.060Z,91.35
2022-09-15T02:54:06.941Z,91.84
2022-09-15T02:59:48.610Z,90.68
2022-09-15T03:05:11.737Z,89.30
2022-09-15T03:10:33.557Z,90.88
2022-09-15T03:15:55.320Z,91.33
2022-09-15T03:21:18.500Z,91.40
2022-09-15T03:26:40.258Z,90.62
2022-09-15T03:32:02.314Z,89.53
2022-09-15T03:37:24.182Z,89.06
2022-09-15T03:42:45.889Z,89.24
2022-09-15T03:48:08.629Z,88.12
2022-09-15T03:53:39.182Z,88.46
2022-09-15T03:59:02.150Z,89.38
2022-09-15T04:04:23.973Z,88.91
2022-09-15T04:09:46.020Z,88.33
2022-09-15T04:15:08.177Z,89.09
2022-09-15T04:20:29.887Z,88.94
2022-09-15T04:26:00.798Z,88.57
2022-09-15T04:31:23.078Z,88.21
2022-09-15T04:36:45.609Z,88.84
2022-09-15T04:42:07.825Z,88.89
2022-09-15T04:47:29.558Z,88.58
2022-09-15T04:52:52.075Z,87.74
2022-09-15T04:58:14.260Z,87.44
2022-09-15T05:03:37.631Z,86.98
2022-09-15T05:08:59.526Z,86.92
2022-09-15T05:14:21.239Z,86.76
2022-09-15T05:19:42.935Z,87.43
2022-09-15T05:25:05.525Z,87.96
2022-09-15T05:30:44.455Z,87.64
2022-09-15T05:36:07.231Z,88.34
2022-09-15T05:41:29.394Z,87.13
2022-09-15T05:46:52.321Z,86.64
2022-09-15T05:52:14.113Z,86.34
2022-09-15T05:57:35.872Z,85.73
2022-09-15T06:02:57.673Z,85.31
2022-09-15T06:08:19.937Z,85.35
2022-09-15T06:13:42.519Z,84.54
2022-09-15T06:19:04.598Z,84.35
2022-09-15T06:24:26.325Z,84.31
2022-09-15T06:29:48.783Z,84.90
2022-09-15T06:35:10.504Z,85.82
2022-09-15T06:40:32.328Z,89.30
2022-09-15T06:46:14.535Z,93.22
2022-09-15T06:51:36.372Z,95.98
2022-09-15T06:56:58.071Z,100.00
2022-09-15T07:02:20.865Z,100.00
2022-09-15T07:07:42.851Z,100.00
2022-09-15T07:13:04.542Z,100.00
2022-09-15T07:18:27.020Z,100.00
2022-09-15T07:23:49.438Z,100.00
2022-09-15T07:29:11.154Z,100.00
2022-09-15T07:34:32.970Z,100.00
2022-09-15T07:39:54.717Z,100.00
2022-09-15T07:45:16.642Z,100.00
2022-09-15T07:50:38.520Z,100.00
2022-09-15T07:56:00.257Z,100.00
2022-09-15T08:01:22.582Z,100.00
2022-09-15T08:06:44.805Z,100.00
2022-09-15T08:12:07.836Z,100.00
2022-09-15T08:17:29.592Z,100.00
2022-09-15T08:22:51.311Z,100.00
2022-09-15T08:28:13.046Z,100.00
2022-09-15T08:33:35.061Z,100.00
2022-09-15T08:38:56.907Z,100.00
2022-09-15T08:44:49.544Z,100.00
2022-09-15T08:50:23.622Z,100.00
2022-09-15T08:55:59.051Z,100.00
2022-09-15T09:01:31.950Z,100.00
2022-09-15T09:07:05.255Z,100.00
2022-09-15T09:13:04.867Z,100.00
2022-09-15T09:19:04.933Z,100.00
2022-09-15T09:24:31.412Z,100.00
2022-09-15T09:30:06.902Z,100.00
2022-09-15T09:35:32.100Z,100.00
2022-09-15T09:40:57.497Z,100.00
2022-09-15T09:46:22.336Z,100.00
2022-09-15T09:52:02.363Z,100.00
2022-09-15T09:57:31.635Z,100.00
2022-09-15T10:02:53.377Z,100.00
2022-09-15T10:08:20.173Z,100.00
2022-09-15T10:13:52.769Z,100.00
2022-09-15T10:19:14.920Z,100.00
2022-09-15T10:24:39.896Z,100.00
2022-09-15T10:30:14.515Z,100.00
2022-09-15T10:35:42.187Z,100.00
2022-09-15T10:41:06.933Z,100.00
2022-09-15T10:46:44.884Z,100.00
2022-09-15T10:52:35.089Z,100.00
2022-09-15T10:58:29.382Z,100.00
2022-09-15T11:04:25.162Z,100.00
2022-09-15T11:09:57.680Z,100.00
2022-09-15T11:15:28.223Z,100.00
2022-09-15T11:21:17.577Z,100.00
2022-09-15T11:27:14.422Z,100.00
2022-09-15T11:32:47.902Z,100.00
2022-09-15T11:38:28.289Z,100.00
2022-09-15T11:44:03.742Z,100.00
2022-09-15T11:49:45.021Z,100.00
2022-09-15T11:55:19.351Z,100.00
2022-09-15T12:01:00.757Z,100.00
2022-09-15T12:06:30.456Z,98.46
2022-09-15T12:12:00.937Z,100.00
2022-09-15T12:17:34.772Z,98.50
2022-09-15T12:23:20.358Z,98.63
2022-09-15T12:28:54.569Z,100.00
2022-09-15T12:34:25.270Z,99.22
2022-09-15T12:39:47.758Z,99.46
2022-09-15T12:45:25.372Z,96.58
2022-09-15T12:51:00.958Z,95.57
2022-09-15T12:56:26.439Z,100.00
2022-09-15T13:01:49.844Z,98.29
2022-09-15T13:07:18.449Z,91.24
2022-09-15T13:12:44.099Z,89.69
2022-09-15T13:18:07.347Z,88.99
2022-09-15T13:23:36.618Z,98.08
2022-09-15T13:28:59.363Z,98.31
2022-09-15T13:40:33.165Z,94.48
2022-09-15T13:46:23.850Z,96.48
2022-09-15T13:51:58.392Z,92.60
2022-09-15T13:58:54.780Z,91.33
2022-09-15T14:03:09.143Z,88.37
2022-09-15T14:08:33.418Z,88.08
2022-09-15T14:13:56.588Z,84.41
2022-09-15T14:19:33.305Z,85.95
2022-09-15T14:24:59.707Z,85.51
2022-09-15T14:30:29.263Z,87.36
2022-09-15T14:35:50.999Z,86.55
2022-09-15T14:41:19.083Z,85.22
2022-09-15T14:46:40.794Z,84.95
2022-09-15T14:52:03.121Z,82.57
2022-09-15T14:57:30.859Z,80.99
2022-09-15T15:02:59.080Z,85.46
2022-09-15T15:08:48.992Z,85.07
2022-09-15T15:14:13.612Z,80.63
2022-09-15T15:19:39.610Z,82.31
2022-09-15T15:25:01.495Z,80.89
2022-09-15T15:30:32.296Z,78.95
2022-09-15T15:36:08.172Z,82.09
2022-09-15T15:41:41.604Z,79.53
2022-09-15T15:47:24.707Z,81.71
2022-09-15T15:52:48.077Z,79.27
2022-09-15T15:58:11.502Z,81.21
2022-09-15T16:03:33.730Z,83.29
2022-09-15T16:08:58.080Z,80.06
2022-09-15T16:14:19.879Z,78.70
2022-09-15T16:19:41.613Z,82.43
2022-09-15T16:25:13.199Z,82.45
2022-09-15T16:30:35.081Z,81.71
2022-09-15T16:36:06.727Z,80.62
2022-09-15T16:41:28.469Z,81.50
2022-09-15T16:46:50.373Z,81.61
2022-09-15T16:52:13.480Z,83.78
2022-09-15T16:57:35.242Z,82.55
2022-09-15T17:02:57.586Z,83.52
2022-09-15T17:08:25.913Z,83.44
2022-09-15T17:13:47.897Z,83.27
2022-09-15T17:19:09.738Z,85.83
2022-09-15T17:24:31.533Z,85.58
2022-09-15T17:29:53.216Z,86.56
2022-09-15T17:35:24.841Z,86.77
2022-09-15T17:40:48.083Z,88.47
2022-09-15T17:46:09.982Z,87.82
2022-09-15T17:51:31.671Z,88.05
2022-09-15T17:56:53.744Z,87.54
2022-09-15T18:02:18.931Z,87.13
2022-09-15T18:07:40.653Z,85.99
2022-09-15T18:13:04.316Z,86.30
2022-09-15T18:18:27.863Z,86.27
2022-09-15T18:23:49.550Z,86.61
2022-09-15T18:29:11.276Z,83.86
2022-09-15T18:34:32.970Z,86.01
2022-09-15T18:39:54.675Z,86.42
2022-09-15T18:45:18.306Z,87.08
2022-09-15T18:50:41.600Z,86.14
2022-09-15T18:56:14.619Z,86.38
2022-09-15T19:01:36.881Z,86.67
2022-09-15T19:06:58.826Z,85.92
2022-09-15T19:17:43.965Z,87.47
2022-09-15T19:23:06.217Z,88.72
2022-09-15T19:28:27.991Z,87.49
2022-09-15T19:33:50.004Z,86.83
2022-09-15T19:39:13.062Z,87.49
2022-09-15T19:44:34.863Z,87.85
2022-09-15T19:49:56.654Z,88.95
2022-09-15T19:55:18.885Z,89.35
2022-09-15T20:00:40.847Z,90.17
2022-09-15T20:06:06.178Z,91.21
2022-09-15T20:11:28.561Z,91.77
2022-09-15T20:16:50.282Z,93.02
2022-09-15T20:22:12.004Z,94.02
2022-09-15T20:27:33.727Z,93.73
2022-09-15T20:32:55.439Z,93.80
2022-09-15T20:38:17.281Z,89.73
2022-09-15T20:43:40.220Z,91.10
2022-09-15T20:49:01.955Z,90.24
2022-09-15T20:54:24.068Z,91.93
2022-09-15T20:59:45.766Z,90.93
2022-09-15T21:05:08.013Z,91.83
2022-09-15T21:10:30.456Z,92.16
2022-09-15T21:15:57.994Z,91.44
2022-09-15T21:21:22.302Z,90.66
2022-09-15T21:27:02.709Z,91.09
2022-09-15T21:32:24.885Z,91.62
2022-09-15T21:37:46.595Z,92.13
2022-09-15T21:43:08.290Z,90.59
2022-09-15T21:48:34.746Z,90.74
2022-09-15T21:53:58.374Z,90.54
2022-09-15T21:59:20.094Z,88.72
2022-09-15T22:04:41.816Z,88.22
2022-09-15T22:10:03.822Z,88.15
2022-09-15T22:15:25.810Z,87.22
2022-09-15T22:20:47.801Z,87.68
2022-09-15T22:26:12.634Z,88.08
2022-09-15T22:31:35.012Z,88.25
2022-09-15T22:36:56.910Z,88.80
2022-09-15T22:42:18.612Z,88.03
2022-09-15T22:47:40.290Z,88.33
2022-09-15T22:53:02.178Z,88.80
2022-09-15T22:58:23.891Z,87.56
2022-09-15T23:04:00.197Z,87.55
2022-09-15T23:09:21.896Z,86.88
2022-09-15T23:14:43.893Z,86.67
2022-09-15T23:20:05.881Z,87.03
2022-09-15T23:25:27.578Z,87.08
2022-09-15T23:30:53.831Z,85.74
2022-09-15T23:36:19.513Z,85.62
2022-09-15T23:41:41.883Z,86.72
2022-09-15T23:47:03.672Z,85.83
2022-09-15T23:52:25.420Z,86.48
2022-09-15T23:57:47.130Z,85.44
